Time;durP1;ratioP1;P1;durP2;ratioP2;P2;SDS_P1;SDS_P2;PMS_P1;PMS_P2;Temp;Humidity;BMP_temperature;BMP_pressure;BME280_temperature;BME280_humidity;BME280_pressure;Samples;Min_cycle;Max_cycle;Signal;HPM_P1;HPM_P2
2023/01/05 00:01:25;;;;;;;18.70;4.90;;;9.30;99.90;;;;;;5031507;28;20526;-68
2023/01/05 00:03:51;;;;;;;17.55;5.22;;;9.60;99.90;;;;;;5010318;28;20116;-69
2023/01/05 00:06:17;;;;;;;30.30;5.57;;;9.40;99.90;;;;;;5026940;28;20037;-68
2023/01/05 00:08:43;;;;;;;27.77;5.35;;;9.70;99.90;;;;;;5031627;28;20083;-70
2023/01/05 00:22:37;;;;;;;;;;;8.90;99.90;;;;;;5018953;28;20519;-69
2023/01/05 00:25:07;;;;;;;24.45;5.50;;;9.30;99.90;;;;;;5032094;28;19936;-69
2023/01/05 00:27:33;;;;;;;21.67;4.35;;;9.90;99.90;;;;;;5032940;28;20514;-68
2023/01/05 00:29:59;;;;;;;22.83;4.70;;;9.60;99.90;;;;;;5009554;28;20034;-69
2023/01/05 00:32:26;;;;;;;21.73;5.68;;;9.10;99.90;;;;;;5023272;28;20120;-68
2023/01/05 00:34:56;;;;;;;29.02;5.68;;;9.40;99.90;;;;;;5031742;28;20041;-68
2023/01/05 00:37:24;;;;;;;18.77;4.50;;;10.10;97.70;;;;;;5028140;28;20635;-68
2023/01/05 00:39:50;;;;;;;28.70;5.05;;;9.20;98.40;;;;;;5023320;28;20065;-68
2023/01/05 00:42:16;;;;;;;20.42;4.72;;;9.80;99.90;;;;;;5011627;28;20052;-68
2023/01/05 00:44:42;;;;;;;19.23;4.60;;;9.70;92.90;;;;;;5005697;28;20120;-68
2023/01/05 00:47:07;;;;;;;14.98;3.38;;;9.20;85.70;;;;;;5026501;28;20113;-68
2023/01/05 00:49:33;;;;;;;21.95;4.80;;;9.80;80.70;;;;;;5023197;28;20045;-68
2023/01/05 00:51:59;;;;;;;21.13;4.53;;;;;;;;;;5019406;28;20490;-68
2023/01/05 00:54:25;;;;;;;18.05;4.80;;;9.50;61.20;;;;;;5017183;28;20467;-68
2023/01/05 00:56:51;;;;;;;19.98;5.75;;;9.50;57.40;;;;;;5005373;28;20036;-68
2023/01/05 00:59:17;;;;;;;17.27;4.65;;;9.80;43.20;;;;;;5028094;28;20094;-67
2023/01/05 01:01:46;;;;;;;21.20;6.13;;;;;;;;;;5031116;28;20037;-69
2023/01/05 01:04:12;;;;;;;21.30;5.03;;;9.90;40.70;;;;;;5016315;28;20048;-68
2023/01/05 01:06:38;;;;;;;19.92;4.35;;;9.60;39.80;;;;;;5023225;28;20034;-68
2023/01/05 01:09:04;;;;;;;16.30;4.20;;;9.70;38.00;;;;;;5024887;28;20030;-67
2023/01/05 01:11:30;;;;;;;19.77;4.13;;;;;;;;;;5013709;28;20037;-68
2023/01/05 01:13:56;;;;;;;17.83;4.38;;;9.50;25.20;;;;;;5012377;28;20038;-67
2023/01/05 01:16:22;;;;;;;19.80;5.10;;;9.90;28.80;;;;;;5031075;28;20043;-68
2023/01/05 01:18:48;;;;;;;24.02;6.25;;;10.20;25.40;;;;;;5003703;28;20140;-68
2023/01/05 01:21:14;;;;;;;18.52;4.43;;;10.00;25.80;;;;;;5024816;28;20069;-68
2023/01/05 01:23:40;;;;;;;13.88;4.40;;;9.90;24.20;;;;;;5012793;28;20459;-68
2023/01/05 01:26:08;;;;;;;20.20;7.15;;;9.30;22.20;;;;;;5004532;28;20073;-68
2023/01/05 01:28:34;;;;;;;19.55;5.70;;;9.40;18.90;;;;;;5019630;28;20263;-68
2023/01/05 01:30:59;;;;;;;22.92;4.45;;;9.60;22.00;;;;;;5022009;28;20068;-67
2023/01/05 01:33:26;;;;;;;18.55;4.28;;;9.70;19.80;;;;;;5016738;28;20123;-69
2023/01/05 01:35:51;;;;;;;16.45;4.80;;;9.90;15.50;;;;;;5015504;28;20034;-68
2023/01/05 01:38:17;;;;;;;12.23;3.95;;;9.50;16.20;;;;;;5028213;28;20494;-69
2023/01/05 01:40:45;;;;;;;26.48;5.35;;;9.70;15.60;;;;;;4981341;28;20129;-69
2023/01/05 01:43:17;;;;;;;20.92;4.30;;;9.40;15.70;;;;;;5027902;28;20038;-70
2023/01/05 01:45:43;;;;;;;20.23;5.95;;;10.20;16.70;;;;;;5029589;28;20041;-68
2023/01/05 01:48:14;;;;;;;21.77;5.18;;;9.50;26.80;;;;;;5005134;28;20034;-68
2023/01/05 01:50:45;;;;;;;22.48;4.90;;;9.50;21.20;;;;;;5019944;28;20064;-69
2023/01/05 01:53:17;;;;;;;18.75;5.53;;;10.00;26.30;;;;;;5031374;28;20065;-68
2023/01/05 01:55:43;;;;;;;29.77;5.43;;;9.80;22.80;;;;;;5022710;28;20522;-69
2023/01/05 01:58:12;;;;;;;23.70;6.75;;;9.50;16.10;;;;;;5011781;28;20537;-68
2023/01/05 02:00:42;;;;;;;22.13;4.93;;;9.60;18.00;;;;;;5001960;28;20046;-69
2023/01/05 02:03:08;;;;;;;23.90;5.07;;;10.10;21.50;;;;;;5007701;28;20134;-67
2023/01/05 02:05:36;;;;;;;24.10;6.32;;;9.80;20.10;;;;;;5008967;28;20092;-68
2023/01/05 02:08:03;;;;;;;15.10;3.55;;;9.60;21.80;;;;;;5029782;28;20056;-68
2023/01/05 02:10:52;;;;;;;19.65;5.18;;;9.40;19.80;;;;;;5009875;28;20664;-68
2023/01/05 02:13:36;;;;;;;20.90;7.28;;;9.60;19.50;;;;;;5012624;28;20141;-68
2023/01/05 02:16:34;;;;;;;19.88;4.75;;;9.50;22.60;;;;;;5029581;28;20037;-67
2023/01/05 02:19:31;;;;;;;21.20;5.20;;;9.60;19.20;;;;;;5022564;28;20037;-67
2023/01/05 02:22:17;;;;;;;20.30;5.20;;;9.00;14.80;;;;;;5015894;28;20049;-67
2023/01/05 02:25:01;;;;;;;20.88;5.07;;;9.30;21.40;;;;;;5002552;28;20100;-67
2023/01/05 02:27:31;;;;;;;23.30;5.23;;;9.20;16.90;;;;;;5014273;28;20045;-67
2023/01/05 02:30:10;;;;;;;21.10;4.85;;;9.30;36.80;;;;;;5028628;28;20371;-69
2023/01/05 02:32:41;;;;;;;21.48;4.65;;;9.30;34.80;;;;;;5028827;28;20037;-68
2023/01/05 02:35:45;;;;;;;28.45;6.32;;;9.00;31.60;;;;;;5004714;28;20105;-68
2023/01/05 02:38:45;;;;;;;20.70;4.82;;;9.50;22.80;;;;;;5016061;28;20038;-68
2023/01/05 02:41:45;;;;;;;19.25;5.53;;;9.30;24.30;;;;;;5013227;28;20095;-68
2023/01/05 02:44:15;;;;;;;23.52;6.18;;;9.70;19.70;;;;;;5006489;28;20080;-69
2023/01/05 02:46:41;;;;;;;20.70;4.47;;;9.60;18.80;;;;;;5016028;28;20069;-68
2023/01/05 02:49:07;;;;;;;17.20;3.58;;;9.60;17.90;;;;;;5027876;28;20065;-68
2023/01/05 02:51:37;;;;;;;23.00;5.68;;;9.50;17.70;;;;;;5022751;28;20099;-68
2023/01/05 02:54:26;;;;;;;21.33;5.68;;;9.40;14.30;;;;;;5005176;28;20084;-68
2023/01/05 02:57:00;;;;;;;24.88;4.63;;;9.30;15.90;;;;;;5011792;28;20037;-68
2023/01/05 02:59:36;;;;;;;20.23;6.40;;;9.60;16.30;;;;;;5018917;28;20041;-68
2023/01/05 03:02:12;;;;;;;22.20;6.03;;;9.90;13.10;;;;;;5024803;28;20042;-68
2023/01/05 03:04:50;;;;;;;18.00;5.90;;;9.70;18.10;;;;;;5016803;28;20380;-68
2023/01/05 03:07:22;;;;;;;19.27;4.35;;;9.60;19.40;;;;;;5028940;28;20118;-68
2023/01/05 03:09:48;;;;;;;20.20;5.43;;;9.60;19.40;;;;;;5029507;28;20631;-68
2023/01/05 03:15:27;;;;;;;16.92;4.82;;;9.40;21.80;;;;;;5017736;28;20045;-68
2023/01/05 03:17:57;;;;;;;21.63;5.80;;;;;;;;;;5026415;28;20120;-68
2023/01/05 03:20:28;;;;;;;23.98;5.40;;;9.90;18.00;;;;;;5011872;28;20057;-67
2023/01/05 03:37:27;;;;;;;17.23;5.35;;;9.90;13.40;;;;;;5023180;28;20081;-67
2023/01/05 03:39:53;;;;;;;23.17;5.28;;;9.50;10.90;;;;;;5026449;28;20507;-67
2023/01/05 03:42:19;;;;;;;23.42;4.60;;;9.40;8.10;;;;;;5025880;28;20041;-67
2023/01/05 03:44:45;;;;;;;19.67;5.20;;;10.00;99.90;;;;;;5029557;28;20041;-67
2023/01/05 03:47:11;;;;;;;22.95;7.28;;;9.50;99.90;;;;;;5027735;28;20037;-67
2023/01/05 03:49:37;;;;;;;21.50;5.05;;;9.70;99.90;;;;;;5027869;28;20037;-67
2023/01/05 03:52:04;;;;;;;22.00;5.07;;;;;;;;;;5023271;28;20041;-67
2023/01/05 03:54:30;;;;;;;26.15;4.80;;;9.70;1.00;;;;;;5022115;28;20060;-67
2023/01/05 03:56:55;;;;;;;22.63;5.57;;;9.70;99.90;;;;;;5025104;28;20034;-67
2023/01/05 03:59:21;;;;;;;15.00;3.70;;;9.80;99.90;;;;;;5023502;28;20483;-67
2023/01/05 04:01:47;;;;;;;22.63;4.45;;;10.20;99.90;;;;;;5028947;28;20033;-66
2023/01/05 04:04:13;;;;;;;15.35;3.55;;;9.80;99.90;;;;;;4984756;28;20132;-67
2023/01/05 04:06:38;;;;;;;25.45;5.78;;;9.80;99.90;;;;;;5021326;28;20041;-67
2023/01/05 04:09:04;;;;;;;12.45;4.15;;;;;;;;;;4995597;28;20419;-66
2023/01/05 04:11:30;;;;;;;22.20;4.78;;;9.90;99.90;;;;;;5030728;28;20033;-66
2023/01/05 04:13:56;;;;;;;20.38;6.13;;;10.10;99.90;;;;;;5020926;28;20465;-67
2023/01/05 04:16:22;;;;;;;25.92;4.82;;;10.00;99.90;;;;;;5029430;28;20045;-67
2023/01/05 04:18:48;;;;;;;15.40;3.70;;;9.70;99.90;;;;;;5033158;28;20434;-67
2023/01/05 04:21:14;;;;;;;14.23;3.85;;;;;;;;;;5019350;28;20116;-67
2023/01/05 04:23:40;;;;;;;27.65;5.75;;;9.80;82.80;;;;;;5020254;28;20049;-67
2023/01/05 04:26:06;;;;;;;22.45;4.60;;;10.20;77.00;;;;;;5026200;28;20038;-67
2023/01/05 04:28:32;;;;;;;24.38;5.30;;;9.60;58.50;;;;;;5031577;28;20040;-67
2023/01/05 04:30:57;;;;;;;17.08;4.20;;;9.60;57.10;;;;;;5031955;28;20025;-66
2023/01/05 04:33:24;;;;;;;17.05;3.83;;;9.70;64.40;;;;;;5026993;28;20144;-67
2023/01/05 04:35:49;;;;;;;25.10;5.05;;;10.00;63.70;;;;;;5011027;28;20087;-67
2023/01/05 04:38:15;;;;;;;20.60;4.28;;;9.80;40.80;;;;;;5015032;28;20042;-67
2023/01/05 04:40:41;;;;;;;18.88;4.07;;;9.80;35.20;;;;;;5021773;28;20042;-67
2023/01/05 04:43:06;;;;;;;22.73;7.05;;;9.60;17.70;;;;;;5027559;28;20034;-67
2023/01/05 04:45:33;;;;;;;21.23;4.93;;;9.60;36.50;;;;;;5030593;28;20041;-67
2023/01/05 04:47:59;;;;;;;18.00;6.20;;;9.80;21.20;;;;;;5031222;28;20037;-66
2023/01/05 04:50:24;;;;;;;15.27;3.88;;;10.20;17.80;;;;;;5030993;28;20163;-67
2023/01/05 04:52:50;;;;;;;23.30;5.13;;;9.90;11.00;;;;;;5018470;28;20069;-66
2023/01/05 04:55:16;;;;;;;15.82;4.43;;;10.20;15.40;;;;;;5020703;28;20034;-67
2023/01/05 04:57:41;;;;;;;24.50;4.90;;;9.90;1.60;;;;;;5012204;28;20477;-67
2023/01/05 05:00:08;;;;;;;17.23;4.50;;;9.50;3.40;;;;;;5031294;28;20077;-66
2023/01/05 05:02:33;;;;;;;20.65;5.53;;;10.00;1.00;;;;;;5030876;28;20041;-66
2023/01/05 05:04:59;;;;;;;23.13;4.35;;;10.00;1.00;;;;;;5029980;28;20079;-67
2023/01/05 05:07:25;;;;;;;20.17;4.30;;;10.40;1.00;;;;;;5004272;28;20033;-67
2023/01/05 05:09:51;;;;;;;19.55;4.32;;;9.80;1.00;;;;;;5021333;28;20072;-67
2023/01/05 05:12:19;;;;;;;13.90;4.32;;;10.00;1.00;;;;;;5015498;28;20080;-66
2023/01/05 05:14:48;;;;;;;17.50;3.95;;;10.20;1.00;;;;;;5017648;28;20037;-66
2023/01/05 05:17:15;;;;;;;17.20;5.07;;;;;;;;;;5026349;28;20048;-67
2023/01/05 05:19:40;;;;;;;19.63;4.65;;;9.90;1.00;;;;;;5012929;28;20534;-66
2023/01/05 05:22:06;;;;;;;17.83;4.28;;;9.70;1.00;;;;;;5024478;28;20138;-67
2023/01/05 05:24:32;;;;;;;17.23;4.25;;;9.70;1.00;;;;;;5028738;28;20029;-67
2023/01/05 05:26:57;;;;;;;17.63;3.90;;;10.30;1.00;;;;;;5015667;28;20030;-67
2023/01/05 05:29:23;;;;;;;17.00;4.53;;;9.60;1.00;;;;;;5029280;28;20106;-67
2023/01/05 05:31:50;;;;;;;22.60;4.47;;;9.90;1.00;;;;;;5007905;28;20037;-67
2023/01/05 05:34:16;;;;;;;19.40;3.97;;;10.10;1.00;;;;;;5028532;28;20415;-67
2023/01/05 05:36:41;;;;;;;16.17;3.80;;;10.10;1.00;;;;;;5028577;28;20048;-67
2023/01/05 05:39:07;;;;;;;18.25;4.40;;;9.80;1.00;;;;;;5028883;28;20040;-66
2023/01/05 05:41:33;;;;;;;17.23;4.43;;;10.00;1.00;;;;;;5030324;28;20044;-67
2023/01/05 05:43:59;;;;;;;22.98;4.63;;;9.90;1.00;;;;;;5023950;28;20038;-66
2023/01/05 05:46:29;;;;;;;15.13;4.95;;;;;;;;;;5031984;28;20409;-66
2023/01/05 05:48:55;;;;;;;14.77;4.65;;;10.20;1.00;;;;;;5021791;28;20712;-67
2023/01/05 05:51:22;;;;;;;22.08;4.55;;;10.00;1.00;;;;;;5022935;28;20041;-66
2023/01/05 05:53:48;;;;;;;14.65;3.60;;;9.70;1.00;;;;;;5023459;28;20044;-66
2023/01/05 05:56:13;;;;;;;20.38;4.20;;;10.00;1.00;;;;;;5020009;28;20049;-66
2023/01/05 05:58:39;;;;;;;17.20;3.65;;;9.70;1.00;;;;;;5027909;28;20455;-66
2023/01/05 06:01:05;;;;;;;23.55;6.00;;;9.60;1.00;;;;;;5010322;28;20045;-66
2023/01/05 06:03:31;;;;;;;19.27;4.05;;;;;;;;;;5026951;28;20042;-67
2023/01/05 06:06:00;;;;;;;16.60;3.90;;;9.80;1.00;;;;;;5019506;28;20052;-66
2023/01/05 06:08:28;;;;;;;26.42;5.05;;;9.40;1.00;;;;;;5021248;28;20570;-66
2023/01/05 06:10:54;;;;;;;25.67;5.60;;;9.70;1.00;;;;;;5023333;28;20037;-66
2023/01/05 06:13:21;;;;;;;18.80;5.13;;;10.10;1.00;;;;;;5026123;28;20111;-66
2023/01/05 06:15:46;;;;;;;24.15;5.30;;;9.60;1.00;;;;;;5011467;28;20042;-67
2023/01/05 06:18:12;;;;;;;22.10;4.85;;;9.40;1.00;;;;;;5029592;28;20040;-66
2023/01/05 06:20:38;;;;;;;23.08;5.13;;;9.40;1.00;;;;;;5011534;28;20080;-67
2023/01/05 06:23:03;;;;;;;26.75;4.65;;;10.00;1.00;;;;;;5027012;28;20038;-67
2023/01/05 06:25:29;;;;;;;25.08;4.93;;;9.40;1.00;;;;;;5027350;28;20483;-66
2023/01/05 06:27:55;;;;;;;20.77;4.15;;;9.60;1.00;;;;;;5029247;28;20508;-67
2023/01/05 06:30:20;;;;;;;13.73;3.45;;;9.90;1.00;;;;;;5029570;28;20037;-67
2023/01/05 06:32:46;;;;;;;11.93;3.45;;;9.40;1.00;;;;;;5029677;28;20037;-66
2023/01/05 06:35:13;;;;;;;21.83;5.63;;;;;;;;;;5023790;28;20095;-66
2023/01/05 06:37:39;;;;;;;12.55;3.03;;;;;;;;;;5011492;28;20046;-67
2023/01/05 06:40:05;;;;;;;22.38;4.53;;;9.50;1.00;;;;;;5029492;28;20043;-66
2023/01/05 06:42:32;;;;;;;22.23;5.60;;;9.80;1.00;;;;;;5028881;28;20144;-66
2023/01/05 06:44:57;;;;;;;18.70;4.80;;;10.30;1.00;;;;;;5023904;28;20044;-67
2023/01/05 06:47:23;;;;;;;25.75;5.82;;;9.50;1.00;;;;;;5029430;28;20116;-66
2023/01/05 06:49:49;;;;;;;15.63;4.32;;;9.40;1.00;;;;;;5029375;28;20124;-67
2023/01/05 06:52:14;;;;;;;24.73;4.50;;;9.30;1.00;;;;;;5028786;28;20041;-66
2023/01/05 06:54:40;;;;;;;21.63;4.80;;;9.30;1.00;;;;;;5029381;28;20033;-67
2023/01/05 06:57:05;;;;;;;18.40;4.10;;;9.90;1.00;;;;;;5026821;28;20033;-66
2023/01/05 06:59:31;;;;;;;23.65;4.43;;;9.80;1.00;;;;;;5027685;28;20042;-66
2023/01/05 07:01:57;;;;;;;19.45;4.63;;;9.70;1.00;;;;;;5027457;28;20044;-67
2023/01/05 07:04:23;;;;;;;21.35;4.00;;;9.30;1.00;;;;;;5030136;28;20037;-67
2023/01/05 07:06:48;;;;;;;17.65;4.57;;;9.80;1.00;;;;;;5029815;28;20404;-67
2023/01/05 07:09:14;;;;;;;21.73;4.43;;;9.50;1.00;;;;;;5011962;28;20411;-67
2023/01/05 07:11:39;;;;;;;19.48;4.22;;;9.40;1.00;;;;;;5030613;28;20041;-67
2023/01/05 07:14:05;;;;;;;23.50;5.50;;;10.00;1.00;;;;;;5029540;28;20034;-67
2023/01/05 07:16:31;;;;;;;16.58;3.80;;;9.10;1.00;;;;;;5029434;28;20033;-67
2023/01/05 07:18:56;;;;;;;12.63;2.95;;;8.90;1.00;;;;;;5028661;28;20037;-67
2023/01/05 07:21:22;;;;;;;13.93;3.35;;;9.60;1.00;;;;;;5022723;28;20041;-67
2023/01/05 07:23:47;;;;;;;14.07;3.97;;;9.30;1.00;;;;;;5027207;28;20041;-67
2023/01/05 07:26:13;;;;;;;20.85;5.05;;;9.60;1.00;;;;;;5023618;28;20087;-68
2023/01/05 07:28:39;;;;;;;17.33;4.53;;;9.40;1.00;;;;;;5021097;28;20026;-67
2023/01/05 07:31:08;;;;;;;22.25;6.00;;;9.30;1.00;;;;;;5005142;28;20034;-67
2023/01/05 07:33:35;;;;;;;18.02;3.58;;;10.00;1.00;;;;;;5022674;28;20047;-67
2023/01/05 07:36:03;;;;;;;16.63;4.28;;;9.30;1.00;;;;;;5031702;28;20380;-67
2023/01/05 07:38:28;;;;;;;23.98;4.72;;;9.20;1.00;;;;;;5024014;28;20696;-67
2023/01/05 07:40:58;;;;;;;23.27;5.13;;;9.90;1.00;;;;;;5026562;28;20038;-67
2023/01/05 07:43:24;;;;;;;19.45;4.35;;;9.70;1.00;;;;;;5018709;28;20044;-67
2023/01/05 07:45:49;;;;;;;18.58;4.10;;;9.20;1.00;;;;;;5026094;28;20037;-67
2023/01/05 07:48:15;;;;;;;23.55;5.65;;;9.60;1.00;;;;;;5027922;28;20082;-65
2023/01/05 07:50:40;;;;;;;24.15;4.82;;;9.60;1.00;;;;;;5024610;28;20041;-65
2023/01/05 07:53:06;;;;;;;20.15;4.68;;;10.20;1.00;;;;;;5014275;28;20029;-66
2023/01/05 07:55:31;;;;;;;20.65;4.35;;;10.70;1.00;;;;;;5008117;28;20444;-67
2023/01/05 07:57:57;;;;;;;14.52;3.72;;;9.60;1.00;;;;;;5021110;28;20037;-66
2023/01/05 08:00:23;;;;;;;15.40;3.50;;;9.40;1.00;;;;;;5024604;28;20065;-67
2023/01/05 08:02:48;;;;;;;14.93;3.60;;;10.10;1.00;;;;;;5026115;28;20505;-67
2023/01/05 08:05:14;;;;;;;20.42;4.18;;;9.80;1.00;;;;;;5024523;28;20117;-67
2023/01/05 08:07:39;;;;;;;13.23;4.30;;;9.70;1.00;;;;;;5028066;28;20033;-67
2023/01/05 08:15:34;;;;;;;14.93;4.63;;;9.90;1.00;;;;;;5028367;28;20046;-66
2023/01/05 08:18:00;;;;;;;17.58;5.13;;;10.00;1.00;;;;;;5006796;28;20044;-66
2023/01/05 08:20:25;;;;;;;12.20;4.30;;;9.40;1.00;;;;;;5030828;28;20041;-66
2023/01/05 08:22:52;;;;;;;18.90;5.63;;;10.00;1.00;;;;;;5011334;28;20128;-67
2023/01/05 08:25:18;;;;;;;24.38;5.00;;;9.70;1.00;;;;;;5027559;28;20045;-67
2023/01/05 08:27:44;;;;;;;21.92;4.75;;;;;;;;;;5020422;28;20105;-66
2023/01/05 08:30:11;;;;;;;17.42;4.40;;;10.20;1.00;;;;;;5024982;28;20519;-67
2023/01/05 08:32:37;;;;;;;17.45;3.88;;;9.60;1.00;;;;;;5008751;28;20052;-67
2023/01/05 08:35:03;;;;;;;19.90;3.72;;;9.60;1.00;;;;;;5031309;28;20394;-66
2023/01/05 08:37:28;;;;;;;15.50;3.42;;;9.40;1.00;;;;;;5025327;28;20030;-66
2023/01/05 08:39:54;;;;;;;19.83;3.80;;;9.70;1.00;;;;;;5023000;28;20033;-66
2023/01/05 08:42:20;;;;;;;14.38;3.17;;;10.00;1.00;;;;;;5029778;28;20111;-66
2023/01/05 08:44:45;;;;;;;15.25;4.75;;;9.60;1.00;;;;;;5006454;28;20033;-66
2023/01/05 08:47:11;;;;;;;15.65;4.38;;;9.80;1.00;;;;;;5030800;28;20037;-66
2023/01/05 08:49:36;;;;;;;18.80;4.82;;;9.70;1.00;;;;;;5012434;28;20041;-67
2023/01/05 08:52:03;;;;;;;15.82;4.72;;;9.60;1.00;;;;;;5029979;28;20037;-66
2023/01/05 08:54:28;;;;;;;18.80;4.00;;;9.80;1.00;;;;;;5006107;28;20030;-66
2023/01/05 08:56:54;;;;;;;21.13;4.70;;;9.90;1.00;;;;;;5022376;28;20026;-66
2023/01/05 08:59:20;;;;;;;16.67;3.63;;;9.50;1.00;;;;;;5021492;28;20483;-67
2023/01/05 09:01:45;;;;;;;23.60;4.63;;;9.90;1.00;;;;;;5027688;28;20045;-67
2023/01/05 09:04:11;;;;;;;22.08;4.72;;;9.50;1.00;;;;;;5028197;28;20040;-66
2023/01/05 09:06:37;;;;;;;18.50;5.50;;;10.00;1.00;;;;;;5005709;28;20040;-66
2023/01/05 09:09:03;;;;;;;23.17;5.90;;;9.50;1.00;;;;;;5026688;28;20124;-66
2023/01/05 09:11:28;;;;;;;15.20;4.25;;;9.60;1.00;;;;;;5019153;28;20107;-66
2023/01/05 09:13:56;;;;;;;24.63;5.45;;;10.00;1.00;;;;;;5025992;28;20487;-69
2023/01/05 09:16:25;;;;;;;21.65;4.05;;;9.50;1.00;;;;;;5025455;28;20452;-67
2023/01/05 09:18:52;;;;;;;18.67;4.95;;;;;;;;;;5023000;28;20499;-67
2023/01/05 09:21:18;;;;;;;24.40;5.07;;;9.70;1.00;;;;;;5015685;28;20519;-68
2023/01/05 09:23:44;;;;;;;15.15;4.05;;;9.60;1.00;;;;;;5027169;28;20522;-67
2023/01/05 09:26:12;;;;;;;19.08;4.00;;;9.50;1.00;;;;;;5016038;28;20026;-67
2023/01/05 09:28:38;;;;;;;17.38;5.40;;;10.00;1.00;;;;;;5028652;28;20407;-67
2023/01/05 09:31:13;;;;;;;28.73;5.82;;;9.60;1.00;;;;;;5019544;28;20041;-66
2023/01/05 09:33:40;;;;;;;24.35;3.55;;;10.10;1.00;;;;;;5027795;28;20490;-66
2023/01/05 09:36:07;;;;;;;24.80;6.10;;;10.00;1.00;;;;;;5024260;28;20395;-68
2023/01/05 09:38:33;;;;;;;15.45;3.67;;;9.60;1.00;;;;;;5024298;28;20029;-67
2023/01/05 09:41:16;;;;;;;17.33;3.95;;;10.00;1.00;;;;;;5002243;28;20033;-66
2023/01/05 09:43:45;;;;;;;15.13;3.85;;;10.00;1.00;;;;;;5021163;28;20499;-66
2023/01/05 09:46:19;;;;;;;18.33;4.47;;;10.30;1.00;;;;;;5023488;28;20499;-66
2023/01/05 09:48:51;;;;;;;14.45;3.97;;;10.30;1.00;;;;;;5011817;28;20030;-66
2023/01/05 09:51:16;;;;;;;14.43;4.00;;;9.50;1.00;;;;;;5011656;28;20041;-66
2023/01/05 09:53:42;;;;;;;15.48;3.83;;;10.10;1.00;;;;;;5026163;28;20212;-66
2023/01/05 09:56:29;;;;;;;16.42;4.45;;;9.90;1.00;;;;;;5005941;28;20102;-66
2023/01/05 09:59:24;;;;;;;19.95;5.07;;;10.10;1.00;;;;;;5016258;28;20033;-67
2023/01/05 10:01:53;;;;;;;23.50;4.75;;;10.20;1.00;;;;;;4994242;28;20034;-67
2023/01/05 10:04:22;;;;;;;21.42;4.85;;;9.70;1.00;;;;;;5027879;28;20052;-66
2023/01/05 10:07:11;;;;;;;16.65;4.30;;;10.00;1.00;;;;;;5004363;28;20750;-67
2023/01/05 10:09:38;;;;;;;21.92;5.28;;;10.50;1.00;;;;;;4987498;28;20053;-67
2023/01/05 10:15:07;;;;;;;13.00;4.00;;;10.90;1.00;;;;;;5008080;28;20041;-67
2023/01/05 10:17:38;;;;;;;15.18;3.80;;;10.30;1.00;;;;;;5007800;28;20052;-66
2023/01/05 10:20:13;;;;;;;22.75;4.20;;;9.90;1.00;;;;;;5028487;28;20038;-66
2023/01/05 10:23:08;;;;;;;20.40;6.10;;;10.60;1.00;;;;;;5011349;28;20064;-66
2023/01/05 10:26:01;;;;;;;18.40;4.15;;;10.60;1.00;;;;;;5009512;28;20133;-65
2023/01/05 10:29:04;;;;;;;21.98;6.85;;;10.30;1.00;;;;;;5011247;28;20042;-65
2023/01/05 10:31:38;;;;;;;16.40;4.35;;;10.40;1.00;;;;;;5022518;28;20053;-66
2023/01/05 10:34:45;;;;;;;13.88;3.97;;;10.40;1.00;;;;;;5029021;28;20522;-66
2023/01/05 10:37:24;;;;;;;15.65;4.25;;;;;;;;;;4987774;28;20435;-66
2023/01/05 10:40:07;;;;;;;17.10;4.30;;;10.90;1.00;;;;;;5011705;28;20388;-66
2023/01/05 10:43:00;;;;;;;13.40;3.70;;;10.30;1.00;;;;;;5025527;28;20137;-66
2023/01/05 10:45:29;;;;;;;15.05;4.65;;;10.20;1.00;;;;;;5026661;28;20038;-66
2023/01/05 10:47:55;;;;;;;15.20;3.65;;;10.50;1.00;;;;;;5022894;28;20610;-66
2023/01/05 10:50:34;;;;;;;12.73;3.22;;;9.90;1.00;;;;;;5033406;28;20095;-67
2023/01/05 10:53:07;;;;;;;18.05;3.72;;;10.80;1.00;;;;;;5015523;28;20125;-67
2023/01/05 10:55:47;;;;;;;19.60;4.00;;;10.80;1.00;;;;;;5020326;28;20069;-67
2023/01/05 10:58:25;;;;;;;16.08;3.45;;;10.90;1.00;;;;;;5017246;28;20457;-66
2023/01/05 11:00:55;;;;;;;19.38;4.60;;;10.80;1.00;;;;;;5022024;28;20042;-66
2023/01/05 11:03:35;;;;;;;15.23;3.60;;;10.80;1.00;;;;;;5006296;28;20053;-66
2023/01/05 11:06:02;;;;;;;15.93;4.05;;;;;;;;;;5024949;28;20033;-67
2023/01/05 11:08:29;;;;;;;18.55;5.47;;;10.80;1.00;;;;;;5027164;28;20060;-66
2023/01/05 11:10:56;;;;;;;16.42;4.03;;;10.70;1.00;;;;;;5032007;28;20045;-67
2023/01/05 11:13:32;;;;;;;17.73;3.67;;;10.60;1.00;;;;;;5028516;28;20412;-68
2023/01/05 11:16:13;;;;;;;15.25;3.95;;;10.90;1.00;;;;;;5030189;28;20041;-67
2023/01/05 11:19:00;;;;;;;20.13;4.38;;;10.70;1.00;;;;;;5012651;28;20495;-67
2023/01/05 11:21:44;;;;;;;17.05;4.03;;;10.50;1.00;;;;;;5004065;28;20124;-67
2023/01/05 11:24:34;;;;;;;16.13;3.97;;;11.00;1.00;;;;;;5000807;28;20092;-67
2023/01/05 11:27:02;;;;;;;17.67;5.20;;;;;;;;;;5030866;28;20038;-67
2023/01/05 11:29:29;;;;;;;14.80;5.05;;;10.80;1.00;;;;;;5030961;28;20049;-67
2023/01/05 11:32:03;;;;;;;18.80;4.35;;;10.80;1.00;;;;;;5028372;28;20495;-67
2023/01/05 11:34:29;;;;;;;;;;;10.40;1.00;;;;;;5014658;28;20049;-67
2023/01/05 11:36:57;;;;;;;19.73;5.00;;;10.60;1.00;;;;;;5027293;28;19917;-67
2023/01/05 11:39:47;;;;;;;15.13;3.75;;;10.60;1.00;;;;;;5026229;28;20607;-67
2023/01/05 11:42:13;;;;;;;21.80;4.20;;;10.40;1.00;;;;;;5008189;28;20041;-67
2023/01/05 11:44:42;;;;;;;17.05;4.57;;;10.80;1.00;;;;;;5022948;28;20099;-67
2023/01/05 11:47:16;;;;;;;22.17;4.85;;;10.60;1.00;;;;;;5009267;28;20048;-67
2023/01/05 11:49:42;;;;;;;20.58;4.60;;;10.20;1.00;;;;;;5006274;28;20076;-67
2023/01/05 11:52:25;;;;;;;18.20;5.15;;;10.60;1.00;;;;;;5026159;28;20060;-67
2023/01/05 11:54:50;;;;;;;15.60;4.30;;;11.10;1.00;;;;;;5023817;28;20034;-67
2023/01/05 11:57:19;;;;;;;17.45;3.90;;;10.40;1.00;;;;;;5025848;28;20132;-67
2023/01/05 11:59:45;;;;;;;16.92;3.63;;;10.60;1.00;;;;;;5012045;28;20080;-67
2023/01/05 12:02:23;;;;;;;13.18;3.55;;;11.80;1.00;;;;;;4999691;28;20422;-66
2023/01/05 12:05:17;;;;;;;10.73;3.60;;;11.20;1.00;;;;;;5029278;28;20376;-66
2023/01/05 12:07:52;;;;;;;15.00;5.15;;;11.50;1.00;;;;;;5029602;28;20033;-67
2023/01/05 12:10:33;;;;;;;13.80;3.85;;;11.60;1.00;;;;;;5030576;28;20114;-67
2023/01/05 12:13:39;;;;;;;11.93;3.75;;;10.70;1.00;;;;;;5023904;28;20069;-67
2023/01/05 12:16:23;;;;;;;15.77;4.25;;;10.20;1.00;;;;;;4994794;28;20183;-67
2023/01/05 12:18:56;;;;;;;14.63;3.77;;;10.80;1.00;;;;;;5007156;28;20048;-67
2023/01/05 12:21:24;;;;;;;16.38;4.47;;;10.80;1.00;;;;;;5020616;28;20695;-67
2023/01/05 12:24:19;;;;;;;19.42;4.18;;;10.80;1.00;;;;;;5009720;28;20045;-67
2023/01/05 12:27:09;;;;;;;18.33;4.93;;;10.20;1.00;;;;;;5006107;28;20045;-67
2023/01/05 12:29:52;;;;;;;29.98;5.43;;;10.70;1.00;;;;;;5029512;28;20045;-67
2023/01/05 12:32:36;;;;;;;15.02;3.70;;;10.50;1.00;;;;;;5009772;28;20049;-66
2023/01/05 12:35:45;;;;;;;13.73;3.95;;;10.40;1.00;;;;;;5008594;28;20046;-66
2023/01/05 12:38:25;;;;;;;13.60;4.85;;;10.70;1.00;;;;;;5024937;28;20033;-67
2023/01/05 12:41:24;;;;;;;16.60;4.15;;;10.20;1.00;;;;;;5028806;28;20115;-67
2023/01/05 12:44:11;;;;;;;17.92;4.00;;;10.50;1.00;;;;;;5027387;28;20088;-67
2023/01/05 12:47:08;;;;;;;16.77;4.00;;;10.40;1.00;;;;;;5025495;28;20041;-67
2023/01/05 12:49:50;;;;;;;15.98;3.92;;;10.90;1.00;;;;;;5028041;28;20067;-66
2023/01/05 12:52:37;;;;;;;14.85;3.83;;;11.00;1.00;;;;;;5027382;28;20037;-66
2023/01/05 12:55:20;;;;;;;14.25;3.95;;;10.60;1.00;;;;;;5006284;28;20463;-66
2023/01/05 12:57:53;;;;;;;19.52;4.88;;;10.70;1.00;;;;;;5023206;28;20049;-67
2023/01/05 13:00:20;;;;;;;20.73;4.53;;;11.20;1.00;;;;;;5002855;28;20042;-68
2023/01/05 13:02:59;;;;;;;14.45;4.28;;;10.20;1.00;;;;;;5015798;28;20054;-67
2023/01/05 13:05:26;;;;;;;16.23;4.15;;;;;;;;;;5023834;28;20136;-67
2023/01/05 13:08:19;;;;;;;18.38;4.28;;;10.50;1.00;;;;;;5003466;28;20125;-66
2023/01/05 13:11:03;;;;;;;16.92;5.22;;;10.30;1.00;;;;;;5020994;28;20041;-66
2023/01/05 13:13:36;;;;;;;17.42;3.90;;;10.20;1.00;;;;;;5029300;28;20052;-67
2023/01/05 13:16:29;;;;;;;16.63;4.03;;;10.10;1.00;;;;;;5029160;28;20403;-68
2023/01/05 13:18:59;;;;;;;20.27;4.60;;;10.60;1.00;;;;;;4999292;28;20092;-67
2023/01/05 13:21:26;;;;;;;17.73;5.15;;;10.60;1.00;;;;;;5030774;28;20049;-67
2023/01/05 13:24:03;;;;;;;19.15;4.25;;;10.60;1.00;;;;;;5001501;28;20034;-67
2023/01/05 13:26:30;;;;;;;19.52;3.80;;;10.40;1.00;;;;;;5027628;28;20042;-67
2023/01/05 13:28:56;;;;;;;17.20;4.30;;;10.60;1.00;;;;;;5017776;28;20038;-67
2023/01/05 13:31:50;;;;;;;15.65;4.50;;;10.90;1.00;;;;;;5021311;28;20054;-67
2023/01/05 13:34:45;;;;;;;15.23;3.55;;;10.50;1.00;;;;;;5024836;28;20052;-67
2023/01/05 13:37:41;;;;;;;17.25;4.32;;;11.00;1.00;;;;;;5026086;28;20646;-67
2023/01/05 13:40:18;;;;;;;12.50;3.75;;;10.90;1.00;;;;;;5004900;28;20041;-67
2023/01/05 13:42:46;;;;;;;16.13;3.95;;;10.10;1.00;;;;;;5022384;28;20049;-66
2023/01/05 13:45:24;;;;;;;15.00;3.40;;;10.70;1.00;;;;;;5021830;28;20030;-66
2023/01/05 13:48:16;;;;;;;15.95;3.55;;;10.40;1.00;;;;;;5023753;28;20033;-66
2023/01/05 13:51:11;;;;;;;11.57;3.72;;;10.50;1.00;;;;;;5022106;28;20048;-66
2023/01/05 13:53:40;;;;;;;19.10;3.92;;;10.50;1.00;;;;;;5019344;28;20148;-66